Eendracht — PDVN — position and weather

sailwx.info

Track history (hours):
 
Tides and Currents Weather Stations Pressure Air Temp Water Temp Dewpoint Dewpoint Depression Visibility Wind Speed Wind Dir Waves Ship Positions

Eendracht (Netherlands)

Last reported at 2020-Aug-13 10:00 UTC. Time now 2020-Aug-13 10:47 UTC.
Position N 51°27' E 003°35'.

Length 59 m; beam 12 m; draft 5 m.

Type: Sailing vessel. MMSI: 244543000.

Date/timePositionNaut miles runAvg speedWind from/ knotsBaromVisibWave heightAir tempDewpointWater temp
2020-Aug-13 10:00N 51°27' E 003°35'0 0.0
2020-Aug-13 08:30N 51°27' E 003°35'1 0.8
2020-Aug-13 07:30N 51°26' E 003°34'6 5.8
2020-Aug-13 06:30N 51°30' E 003°27'3 5.7
2020-Aug-13 06:00N 51°33' E 003°25'5 5.2
2020-Aug-13 05:00N 51°37' E 003°20'3 1.6
2020-Aug-13 03:00N 51°40' E 003°20'1 1.3
2020-Aug-13 02:30N 51°41' E 003°20'5 2.4
2020-Aug-13 00:30N 51°45' E 003°23'3 1.9
2020-Aug-12 23:00N 51°48' E 003°24'4 2.6
2020-Aug-12 21:30N 51°49' E 003°30'1 2.3
2020-Aug-12 21:00N 51°49' E 003°32'1 1.1
2020-Aug-12 20:30N 51°49' E 003°33'5 1.5
2020-Aug-12 17:00N 51°54' E 003°35'13 6.3
2020-Aug-12 15:00N 52°01' E 003°51'6 5.9
2020-Aug-12 14:00N 52°05' E 003°59'7 4.6
2020-Aug-12 12:30N 52°09' E 004°07'6 3.1
2020-Aug-12 10:30N 52°14' E 004°14'1 2.2
2020-Aug-12 10:00N 52°14' E 004°16'1 0.7
2020-Aug-12 08:00N 52°16' E 004°17'2 1.4
2020-Aug-12 06:30N 52°18' E 004°16'9 2.7
2020-Aug-12 03:00N 52°27' E 004°17'1 2.4
2020-Aug-12 02:30N 52°28' E 004°17'5 1.8
2020-Aug-11 23:30N 52°33' E 004°21'0 0.8
2020-Aug-11 23:00N 52°33' E 004°20'1 0.6
2020-Aug-11 21:30N 52°32' E 004°21'1 2.3
2020-Aug-11 21:00N 52°32' E 004°23'1 0.5
2020-Aug-11 20:00N 52°31' E 004°23'7 2.7
2020-Aug-11 17:30N 52°33' E 004°12'17 2.8
2020-Aug-11 11:22N 52°48' E 003°58'8 5.7
2020-Aug-11 09:59N 52°53' E 003°48'3 5.5
2020-Aug-11 09:22N 52°55' E 003°43'13 2.9
2020-Aug-11 04:48N 52°58' E 003°22'15 4.0
2020-Aug-11 01:00N 52°43' E 003°19'4 3.9
2020-Aug-11 00:00N 52°39' E 003°19'11 4.6
2020-Aug-10 21:30N 52°28' E 003°22'19 5.3
2020-Aug-10 18:00N 52°10' E 003°31'22 4.0
2020-Aug-10 12:30N 51°60' E 004°03'17 4.9
2020-Aug-10 09:00N 51°54' E 004°29'0 0.0
2020-Aug-10 08:30N 51°54' E 004°29'0 0.0
2020-Aug-10 00:30N 51°54' E 004°29'0 0.0
2020-Aug-09 23:30N 51°54' E 004°29'0 0.0
2020-Aug-09 20:00N 51°54' E 004°29'0 0.0
2020-Aug-09 18:30N 51°54' E 004°29'0 0.0
2020-Aug-09 16:30N 51°54' E 004°29'0 0.0
2020-Aug-09 15:00N 51°54' E 004°29'3 1.2
2020-Aug-09 12:30N 51°54' E 004°24'7 4.8
2020-Aug-09 11:00N 51°56' E 004°13'6 4.3
2020-Aug-09 09:30N 51°59' E 004°04'3 1.4
2020-Aug-09 07:30N 52°02' E 004°06'2 3.4
2020-Aug-09 07:00N 52°03' E 004°05'4 2.5
2020-Aug-09 05:30N 52°07' E 004°03'3 3.4
2020-Aug-09 04:30N 52°10' E 004°01'12 2.5
2020-Aug-08 23:30N 52°22' E 003°60'5 5.3
2020-Aug-08 22:30N 52°27' E 003°57'5 5.4
2020-Aug-08 21:30N 52°32' E 003°53'9 2.4
2020-Aug-08 17:31N 52°24' E 003°60'15 5.1
2020-Aug-08 14:30N 52°15' E 004°21'2 1.2
2020-Aug-08 13:00N 52°14' E 004°23'1 0.7
2020-Aug-08 11:30N 52°15' E 004°24'0 0.0
2020-Aug-08 11:00N 52°15' E 004°24'0 0.0
2020-Aug-08 09:30N 52°15' E 004°24'0 0.0
2020-Aug-08 09:00N 52°15' E 004°24'0 0.1
2020-Aug-08 08:00N 52°15' E 004°24'0 0.0
2020-Aug-08 05:00N 52°15' E 004°24'0 0.0
2020-Aug-08 04:00N 52°15' E 004°24'0 0.0
2020-Aug-08 03:30N 52°15' E 004°24'0 0.1
2020-Aug-08 03:00N 52°15' E 004°24'0 0.0
2020-Aug-08 00:59N 52°15' E 004°24'0 0.0
2020-Aug-07 23:59N 52°15' E 004°24'0 0.0
2020-Aug-07 21:59N 52°15' E 004°24'0 0.0
2020-Aug-07 19:29N 52°15' E 004°24'0 0.0
2020-Aug-07 17:29N 52°15' E 004°24'0 0.0
2020-Aug-07 16:29N 52°15' E 004°24'10 4.0
2020-Aug-07 14:01N 52°13' E 004°09'5 4.7
2020-Aug-07 13:01N 52°11' E 004°02'1 2.3
2020-Aug-07 12:31N 52°10' E 004°00'2 0.8
2020-Aug-07 10:31N 52°09' E 003°58'1 1.9
2020-Aug-07 10:01N 52°10' E 003°59'4 1.1
2020-Aug-07 06:31N 52°12' E 004°04'0 0.2
2020-Aug-07 05:01N 52°12' E 004°04'1 1.1
2020-Aug-07 04:31N 52°11' E 004°04'0 0.7
2020-Aug-07 04:00N 52°11' E 004°04'0 0.3
2020-Aug-07 03:30N 52°11' E 004°03'4 1.7
2020-Aug-07 01:01N 52°15' E 004°05'4 2.5
2020-Aug-06 23:31N 52°19' E 004°04'3 1.7
2020-Aug-06 21:31N 52°22' E 004°05'4 2.6
2020-Aug-06 20:01N 52°21' E 004°10'10 2.4
2020-Aug-06 16:00N 52°16' E 004°24'10 3.9
2020-Aug-06 13:31N 52°08' E 004°16'1 0.2
2020-Aug-06 05:59N 52°06' E 004°16'0 0.0
2020-Aug-06 05:29N 52°06' E 004°16'0 0.0
2020-Aug-06 04:29N 52°06' E 004°16'0 0.0
2020-Aug-06 03:59N 52°06' E 004°16'0 0.0
2020-Aug-06 01:58N 52°06' E 004°16'0 0.0
2020-Aug-06 01:28N 52°06' E 004°16'0 0.0
2020-Aug-05 22:28N 52°06' E 004°16'0 0.0
2020-Aug-05 19:58N 52°06' E 004°16'0 0.0
2020-Aug-05 19:28N 52°06' E 004°16'0 0.0
2020-Aug-05 17:28N 52°06' E 004°16'3 0.8
2020-Aug-05 14:00N 52°09' E 004°13'4 4.5
2020-Aug-05 13:00N 52°12' E 004°09'2 4.7
2020-Aug-05 12:31N 52°13' E 004°06'8 2.7
2020-Aug-05 09:30N 52°19' E 003°55'25 7.1
2020-Aug-05 06:03N 52°34' E 003°25'9 5.7
2020-Aug-05 04:29N 52°39' E 003°12'5 1.2
2020-Aug-05 00:29N 52°35' E 003°14'15 7.3
2020-Aug-04 22:28N 52°27' E 003°35'10 6.8
2020-Aug-04 21:00N 52°24' E 003°50'8 8.1
2020-Aug-04 20:00N 52°20' E 004°02'11 3.5
2020-Aug-04 16:59N 52°15' E 004°17'0 0.0
2020-Aug-04 10:59N 52°15' E 004°17'0 0.0
2020-Aug-04 09:29N 52°15' E 004°17'0 0.0
2020-Aug-04 08:59N 52°15' E 004°17'0 0.0
2020-Aug-04 08:29N 52°15' E 004°17'0 0.0
2020-Aug-04 04:58N 52°15' E 004°17'0 0.0
2020-Aug-04 03:58N 52°15' E 004°17'0 0.0
2020-Aug-04 02:58N 52°15' E 004°17'0 0.0
2020-Aug-03 22:30N 52°15' E 004°17'12 2.4
2020-Aug-03 17:30N 52°12' E 003°58'2 1.5
2020-Aug-03 16:30N 52°12' E 004°01'1 1.1
2020-Aug-03 15:30N 52°12' E 004°02'5 2.2
2020-Aug-03 13:00N 52°07' E 004°05'7 3.5
2020-Aug-03 11:00N 51°60' E 004°02'7 7.2
2020-Aug-03 10:00N 51°56' E 004°13'  
Track history (hours):
 
Tides and Currents Weather Stations Pressure Air Temp Water Temp Dewpoint Dewpoint Depression Visibility Wind Speed Wind Dir Waves Ship Positions

Eendracht (Netherlands)

Last reported at 2020-Aug-13 10:00 UTC. Time now 2020-Aug-13 10:47 UTC.
Position N 51°27' E 003°35'.

Length 59 m; beam 12 m; draft 5 m.

Type: Sailing vessel. MMSI: 244543000.

Date/timePositionNaut miles runAvg speedWind from/ knotsBaromVisibWave heightAir tempDewpointWater temp
2020-Aug-13 10:00N 51°27' E 003°35'0 0.0
2020-Aug-13 08:30N 51°27' E 003°35'1 0.8
2020-Aug-13 07:30N 51°26' E 003°34'6 5.8
2020-Aug-13 06:30N 51°30' E 003°27'3 5.7
2020-Aug-13 06:00N 51°33' E 003°25'5 5.2
2020-Aug-13 05:00N 51°37' E 003°20'3 1.6
2020-Aug-13 03:00N 51°40' E 003°20'1 1.3
2020-Aug-13 02:30N 51°41' E 003°20'5 2.4
2020-Aug-13 00:30N 51°45' E 003°23'3 1.9
2020-Aug-12 23:00N 51°48' E 003°24'4 2.6
2020-Aug-12 21:30N 51°49' E 003°30'1 2.3
2020-Aug-12 21:00N 51°49' E 003°32'1 1.1
2020-Aug-12 20:30N 51°49' E 003°33'5 1.5
2020-Aug-12 17:00N 51°54' E 003°35'13 6.3
2020-Aug-12 15:00N 52°01' E 003°51'6 5.9
2020-Aug-12 14:00N 52°05' E 003°59'7 4.6
2020-Aug-12 12:30N 52°09' E 004°07'6 3.1
2020-Aug-12 10:30N 52°14' E 004°14'1 2.2
2020-Aug-12 10:00N 52°14' E 004°16'1 0.7
2020-Aug-12 08:00N 52°16' E 004°17'2 1.4
2020-Aug-12 06:30N 52°18' E 004°16'9 2.7
2020-Aug-12 03:00N 52°27' E 004°17'1 2.4
2020-Aug-12 02:30N 52°28' E 004°17'5 1.8
2020-Aug-11 23:30N 52°33' E 004°21'0 0.8
2020-Aug-11 23:00N 52°33' E 004°20'1 0.6
2020-Aug-11 21:30N 52°32' E 004°21'1 2.3
2020-Aug-11 21:00N 52°32' E 004°23'1 0.5
2020-Aug-11 20:00N 52°31' E 004°23'7 2.7
2020-Aug-11 17:30N 52°33' E 004°12'17 2.8
2020-Aug-11 11:22N 52°48' E 003°58'8 5.7
2020-Aug-11 09:59N 52°53' E 003°48'3 5.5
2020-Aug-11 09:22N 52°55' E 003°43'13 2.9
2020-Aug-11 04:48N 52°58' E 003°22'15 4.0
2020-Aug-11 01:00N 52°43' E 003°19'4 3.9
2020-Aug-11 00:00N 52°39' E 003°19'11 4.6
2020-Aug-10 21:30N 52°28' E 003°22'19 5.3
2020-Aug-10 18:00N 52°10' E 003°31'22 4.0
2020-Aug-10 12:30N 51°60' E 004°03'17 4.9
2020-Aug-10 09:00N 51°54' E 004°29'0 0.0
2020-Aug-10 08:30N 51°54' E 004°29'0 0.0
2020-Aug-10 00:30N 51°54' E 004°29'0 0.0
2020-Aug-09 23:30N 51°54' E 004°29'0 0.0
2020-Aug-09 20:00N 51°54' E 004°29'0 0.0
2020-Aug-09 18:30N 51°54' E 004°29'0 0.0
2020-Aug-09 16:30N 51°54' E 004°29'0 0.0
2020-Aug-09 15:00N 51°54' E 004°29'3 1.2
2020-Aug-09 12:30N 51°54' E 004°24'7 4.8
2020-Aug-09 11:00N 51°56' E 004°13'6 4.3
2020-Aug-09 09:30N 51°59' E 004°04'3 1.4
2020-Aug-09 07:30N 52°02' E 004°06'2 3.4
2020-Aug-09 07:00N 52°03' E 004°05'4 2.5
2020-Aug-09 05:30N 52°07' E 004°03'3 3.4
2020-Aug-09 04:30N 52°10' E 004°01'12 2.5
2020-Aug-08 23:30N 52°22' E 003°60'5 5.3
2020-Aug-08 22:30N 52°27' E 003°57'5 5.4
2020-Aug-08 21:30N 52°32' E 003°53'9 2.4
2020-Aug-08 17:31N 52°24' E 003°60'15 5.1
2020-Aug-08 14:30N 52°15' E 004°21'2 1.2
2020-Aug-08 13:00N 52°14' E 004°23'1 0.7
2020-Aug-08 11:30N 52°15' E 004°24'0 0.0
2020-Aug-08 11:00N 52°15' E 004°24'0 0.0
2020-Aug-08 09:30N 52°15' E 004°24'0 0.0
2020-Aug-08 09:00N 52°15' E 004°24'0 0.1
2020-Aug-08 08:00N 52°15' E 004°24'0 0.0
2020-Aug-08 05:00N 52°15' E 004°24'0 0.0
2020-Aug-08 04:00N 52°15' E 004°24'0 0.0
2020-Aug-08 03:30N 52°15' E 004°24'0 0.1
2020-Aug-08 03:00N 52°15' E 004°24'0 0.0
2020-Aug-08 00:59N 52°15' E 004°24'0 0.0
2020-Aug-07 23:59N 52°15' E 004°24'0 0.0
2020-Aug-07 21:59N 52°15' E 004°24'0 0.0
2020-Aug-07 19:29N 52°15' E 004°24'0 0.0
2020-Aug-07 17:29N 52°15' E 004°24'0 0.0
2020-Aug-07 16:29N 52°15' E 004°24'10 4.0
2020-Aug-07 14:01N 52°13' E 004°09'5 4.7
2020-Aug-07 13:01N 52°11' E 004°02'1 2.3
2020-Aug-07 12:31N 52°10' E 004°00'2 0.8
2020-Aug-07 10:31N 52°09' E 003°58'1 1.9
2020-Aug-07 10:01N 52°10' E 003°59'4 1.1
2020-Aug-07 06:31N 52°12' E 004°04'0 0.2
2020-Aug-07 05:01N 52°12' E 004°04'1 1.1
2020-Aug-07 04:31N 52°11' E 004°04'0 0.7
2020-Aug-07 04:00N 52°11' E 004°04'0 0.3
2020-Aug-07 03:30N 52°11' E 004°03'4 1.7
2020-Aug-07 01:01N 52°15' E 004°05'4 2.5
2020-Aug-06 23:31N 52°19' E 004°04'3 1.7
2020-Aug-06 21:31N 52°22' E 004°05'4 2.6
2020-Aug-06 20:01N 52°21' E 004°10'10 2.4
2020-Aug-06 16:00N 52°16' E 004°24'10 3.9
2020-Aug-06 13:31N 52°08' E 004°16'1 0.2
2020-Aug-06 05:59N 52°06' E 004°16'0 0.0
2020-Aug-06 05:29N 52°06' E 004°16'0 0.0
2020-Aug-06 04:29N 52°06' E 004°16'0 0.0
2020-Aug-06 03:59N 52°06' E 004°16'0 0.0
2020-Aug-06 01:58N 52°06' E 004°16'0 0.0
2020-Aug-06 01:28N 52°06' E 004°16'0 0.0
2020-Aug-05 22:28N 52°06' E 004°16'0 0.0
2020-Aug-05 19:58N 52°06' E 004°16'0 0.0
2020-Aug-05 19:28N 52°06' E 004°16'0 0.0
2020-Aug-05 17:28N 52°06' E 004°16'3 0.8
2020-Aug-05 14:00N 52°09' E 004°13'4 4.5
2020-Aug-05 13:00N 52°12' E 004°09'2 4.7
2020-Aug-05 12:31N 52°13' E 004°06'8 2.7
2020-Aug-05 09:30N 52°19' E 003°55'25 7.1
2020-Aug-05 06:03N 52°34' E 003°25'9 5.7
2020-Aug-05 04:29N 52°39' E 003°12'5 1.2
2020-Aug-05 00:29N 52°35' E 003°14'15 7.3
2020-Aug-04 22:28N 52°27' E 003°35'10 6.8
2020-Aug-04 21:00N 52°24' E 003°50'8 8.1
2020-Aug-04 20:00N 52°20' E 004°02'11 3.5
2020-Aug-04 16:59N 52°15' E 004°17'0 0.0
2020-Aug-04 10:59N 52°15' E 004°17'0 0.0
2020-Aug-04 09:29N 52°15' E 004°17'0 0.0
2020-Aug-04 08:59N 52°15' E 004°17'0 0.0
2020-Aug-04 08:29N 52°15' E 004°17'0 0.0
2020-Aug-04 04:58N 52°15' E 004°17'0 0.0
2020-Aug-04 03:58N 52°15' E 004°17'0 0.0
2020-Aug-04 02:58N 52°15' E 004°17'0 0.0
2020-Aug-03 22:30N 52°15' E 004°17'12 2.4
2020-Aug-03 17:30N 52°12' E 003°58'2 1.5
2020-Aug-03 16:30N 52°12' E 004°01'1 1.1
2020-Aug-03 15:30N 52°12' E 004°02'5 2.2
2020-Aug-03 13:00N 52°07' E 004°05'7 3.5
2020-Aug-03 11:00N 51°60' E 004°02'7 7.2
2020-Aug-03 10:00N 51°56' E 004°13'  

Dump ship's entire track history